WSSS

Singapore Changi International Airport

Singapore, Singapore
METAR WSSS 161000Z 10005KT 080V150 9999 FEW020 BKN270 29/25 Q1008 NOSIG
Observed Flight Rules
Nov-16 @ 10:00 UTC (28 minutes ago) Visual Flight Rules
Wind Visibility Clouds
100° at 5 knots 10,000+ meters
  • Few at 2,000' AGL
  • Broken at 27,000' AGL
Temperatures Readings
Current 29°C / 84°F
Dewpoint 25°C / 77°F
Humidity 79%
Altimeter 29.76" Hg
Pressure 1008 hPa
Elevation 16
METAR WSSS 161000Z 10005KT 080V150 9999 FEW020 BKN270 29/25 Q1008 NOSIG
Observed Flight Rules
Nov-16 @ 10:00 UTC
(28 minutes ago)
VFR
Wind Visibility
100° at 5 knots 10,000+ meters
Clouds
  • Few at 2,000' AGL
  • Broken at 27,000' AGL
Temperature Dewpoint
29°C / 84°F 25°C / 77°F
Humidity Altimeter Pressure
79% 29.76" Hg 1008 hPa